Time;durP1;ratioP1;P1;durP2;ratioP2;P2;SDS_P1;SDS_P2;PMS_P1;PMS_P2;Temp;Humidity;BMP_temperature;BMP_pressure;BME280_temperature;BME280_humidity;BME280_pressure;Samples;Min_cycle;Max_cycle;Signal;HPM_P1;HPM_P2
2021/11/09 00:01:57;;;;;;;8.60;5.20;;;13.00;90.70;;;;;;5015007;28;20025;-78
2021/11/09 00:04:27;;;;;;;9.13;5.90;;;13.00;90.70;;;;;;5015003;28;20018;-77
2021/11/09 00:07:06;;;;;;;9.57;5.72;;;13.00;90.70;;;;;;5014935;28;20043;-78
2021/11/09 00:09:45;;;;;;;9.35;5.78;;;13.00;90.90;;;;;;5015016;28;20083;-77
2021/11/09 00:12:10;;;;;;;10.60;5.75;;;13.10;90.80;;;;;;5016677;28;20021;-78
2021/11/09 00:14:36;;;;;;;9.43;6.40;;;13.10;90.80;;;;;;5014383;28;20030;-78
2021/11/09 00:17:02;;;;;;;10.65;5.70;;;13.10;90.80;;;;;;5014653;28;20028;-77
2021/11/09 00:19:27;;;;;;;9.60;5.47;;;13.10;90.80;;;;;;5014742;28;20084;-77
2021/11/09 00:21:53;;;;;;;9.52;5.40;;;13.10;90.80;;;;;;5023683;28;20029;-77
2021/11/09 00:24:18;;;;;;;9.98;5.65;;;13.10;90.80;;;;;;5023527;28;20028;-78
2021/11/09 00:26:44;;;;;;;9.52;5.95;;;13.10;90.70;;;;;;5021454;28;20040;-79
2021/11/09 00:29:09;;;;;;;10.27;6.03;;;13.10;90.60;;;;;;5021864;28;20030;-79
2021/11/09 00:31:36;;;;;;;8.30;5.57;;;13.10;90.70;;;;;;5022946;28;20036;-79
2021/11/09 00:34:01;;;;;;;10.32;6.00;;;13.20;90.60;;;;;;5022115;28;20033;-80
2021/11/09 00:36:27;;;;;;;9.48;6.22;;;13.20;90.60;;;;;;5022167;28;20042;-79
2021/11/09 00:38:52;;;;;;;9.35;5.72;;;13.20;90.60;;;;;;5021521;28;20098;-78
2021/11/09 00:41:18;;;;;;;9.43;5.82;;;13.20;90.60;;;;;;5021280;28;20022;-79
2021/11/09 00:43:44;;;;;;;9.68;5.93;;;13.10;90.60;;;;;;5020661;28;20408;-79
2021/11/09 00:46:09;;;;;;;12.63;6.22;;;13.20;90.60;;;;;;5018622;28;20022;-79
2021/11/09 00:48:35;;;;;;;10.38;5.85;;;13.20;90.60;;;;;;5019406;28;20022;-77
2021/11/09 00:51:00;;;;;;;9.90;5.90;;;13.10;90.60;;;;;;5019765;28;20030;-79
2021/11/09 00:53:26;;;;;;;11.65;6.55;;;13.10;90.60;;;;;;5025516;28;20029;-79
2021/11/09 00:55:52;;;;;;;11.25;6.97;;;13.10;90.60;;;;;;5020802;28;20032;-78
2021/11/09 00:58:17;;;;;;;10.35;6.70;;;13.10;90.60;;;;;;5019731;28;20496;-79
2021/11/09 01:00:44;;;;;;;10.90;6.93;;;13.10;90.70;;;;;;5017709;28;20025;-79
2021/11/09 01:03:11;;;;;;;10.73;6.63;;;13.10;90.80;;;;;;5016963;28;20176;-77
2021/11/09 01:05:37;;;;;;;9.88;6.20;;;13.00;90.90;;;;;;5015765;28;20022;-77
2021/11/09 01:08:06;;;;;;;13.07;6.68;;;13.00;90.70;;;;;;5016458;28;20411;-77
2021/11/09 01:10:37;;;;;;;12.77;6.88;;;13.00;90.80;;;;;;5017520;28;20026;-79
2021/11/09 01:13:04;;;;;;;11.50;7.32;;;13.00;90.90;;;;;;5017416;28;20037;-77
2021/11/09 01:15:31;;;;;;;12.38;6.90;;;13.00;90.80;;;;;;5016378;28;20025;-79
2021/11/09 01:17:59;;;;;;;12.57;6.93;;;13.00;90.90;;;;;;5018439;28;20029;-78
2021/11/09 01:20:27;;;;;;;10.88;6.57;;;13.00;90.80;;;;;;5017257;28;20022;-79
2021/11/09 01:22:53;;;;;;;11.50;7.75;;;13.00;90.80;;;;;;5018535;28;20391;-77
2021/11/09 01:25:21;;;;;;;11.30;6.53;;;13.00;90.80;;;;;;5016700;28;20101;-79
2021/11/09 01:27:47;;;;;;;12.13;7.57;;;13.00;90.80;;;;;;5015643;28;20120;-79
2021/11/09 01:30:14;;;;;;;11.57;6.50;;;13.00;90.80;;;;;;5016569;28;20443;-79
2021/11/09 01:32:40;;;;;;;11.35;7.15;;;13.00;90.70;;;;;;5016916;28;20030;-78
2021/11/09 01:35:07;;;;;;;11.32;7.20;;;13.00;90.70;;;;;;5016610;28;20036;-78
2021/11/09 01:37:33;;;;;;;10.93;6.75;;;13.00;91.00;;;;;;5018657;28;20084;-78
2021/11/09 01:39:59;;;;;;;12.50;7.45;;;13.00;90.80;;;;;;5017489;28;20029;-77
2021/11/09 01:42:26;;;;;;;10.27;6.60;;;13.00;90.90;;;;;;4997286;28;20020;-79
2021/11/09 01:44:51;;;;;;;11.57;7.35;;;13.00;90.80;;;;;;4997102;28;20109;-77
2021/11/09 01:47:17;;;;;;;11.15;6.72;;;13.00;90.80;;;;;;4997810;28;20534;-77
2021/11/09 01:49:43;;;;;;;14.13;7.53;;;13.00;90.80;;;;;;4997991;28;20030;-76
2021/11/09 01:52:09;;;;;;;12.52;7.90;;;13.00;90.70;;;;;;4995827;28;20113;-77
2021/11/09 01:54:34;;;;;;;11.35;7.25;;;13.00;90.70;;;;;;4996297;28;20026;-77
2021/11/09 01:57:00;;;;;;;12.73;6.57;;;13.00;90.80;;;;;;4995333;28;20037;-79
2021/11/09 01:59:29;;;;;;;12.18;6.65;;;13.00;90.90;;;;;;4996954;28;20038;-79
2021/11/09 02:01:55;;;;;;;10.93;6.47;;;13.00;90.70;;;;;;4995633;28;20049;-79
2021/11/09 02:04:21;;;;;;;15.02;7.78;;;13.00;90.70;;;;;;4995641;28;20026;-78
2021/11/09 02:06:47;;;;;;;14.65;7.22;;;13.00;90.90;;;;;;4994631;28;20525;-78
2021/11/09 02:09:15;;;;;;;11.63;7.22;;;13.00;90.70;;;;;;4994702;28;20026;-77
2021/11/09 02:11:42;;;;;;;13.95;6.78;;;13.00;90.80;;;;;;4995094;28;20027;-78
2021/11/09 02:14:08;;;;;;;12.48;7.60;;;13.00;90.70;;;;;;4994777;28;20031;-77
2021/11/09 02:16:35;;;;;;;13.35;6.93;;;13.00;90.80;;;;;;4995397;28;20492;-79
2021/11/09 02:19:02;;;;;;;14.60;7.35;;;13.00;90.80;;;;;;4994619;28;20113;-78
2021/11/09 02:21:27;;;;;;;11.48;7.10;;;13.00;90.80;;;;;;4994052;28;20022;-79
2021/11/09 02:23:53;;;;;;;11.95;6.60;;;13.00;90.80;;;;;;4995704;28;20026;-77
2021/11/09 02:26:22;;;;;;;13.52;7.32;;;13.00;90.80;;;;;;4995606;28;20411;-77
2021/11/09 02:28:50;;;;;;;13.82;7.20;;;13.00;90.90;;;;;;4994897;28;20039;-77
2021/11/09 02:31:16;;;;;;;12.23;6.80;;;13.00;90.80;;;;;;4994659;28;20030;-79
2021/11/09 02:33:41;;;;;;;12.95;7.25;;;13.00;90.90;;;;;;4993705;28;20571;-77
2021/11/09 02:36:07;;;;;;;14.13;7.35;;;13.00;90.80;;;;;;4994859;28;20042;-78
2021/11/09 02:38:33;;;;;;;12.30;7.22;;;13.00;90.80;;;;;;5067358;22;20041;-79
2021/11/09 02:41:00;;;;;;;12.15;6.95;;;13.00;90.70;;;;;;5034683;28;20082;-81
2021/11/09 02:43:26;;;;;;;12.85;7.20;;;13.00;90.80;;;;;;5052625;28;20028;-80
2021/11/09 02:46:34;;;;;;;15.15;7.45;;;13.00;90.80;;;;;;5034556;28;20134;-80
2021/11/09 02:49:01;;;;;;;14.40;6.78;;;13.00;90.80;;;;;;5054420;28;20032;-80
2021/11/09 02:51:41;;;;;;;10.93;6.57;;;13.00;90.70;;;;;;5039104;28;20035;-80
2021/11/09 02:56:47;;;;;;;13.25;7.22;;;13.00;90.70;;;;;;5056292;28;20028;-80
2021/11/09 03:02:33;;;;;;;11.07;6.63;;;13.00;90.80;;;;;;5056651;28;20044;-79
2021/11/09 03:05:02;;;;;;;12.32;6.70;;;13.00;90.80;;;;;;5055642;28;20029;-80
2021/11/09 03:07:53;;;;;;;11.55;7.05;;;13.00;90.90;;;;;;5037994;28;20536;-81
2021/11/09 03:10:35;;;;;;;10.73;6.63;;;13.00;90.80;;;;;;5055325;28;20120;-80
2021/11/09 03:13:02;;;;;;;10.68;6.32;;;13.00;91.00;;;;;;5038511;28;20021;-81
2021/11/09 03:15:30;;;;;;;12.80;7.10;;;13.00;90.90;;;;;;5037687;28;20025;-81
2021/11/09 03:18:19;;;;;;;12.18;6.40;;;13.00;90.90;;;;;;5037760;28;20021;-80
2021/11/09 03:45:05;;;;;;;13.07;6.72;;;13.10;90.60;;;;;;5055460;28;20032;-80
2021/11/09 03:47:32;;;;;;;15.45;6.57;;;13.10;90.60;;;;;;5037502;28;20025;-80
2021/11/09 03:49:59;;;;;;;15.65;7.18;;;13.10;90.60;;;;;;5037295;28;20053;-79
2021/11/09 03:52:28;;;;;;;13.73;6.47;;;13.10;90.50;;;;;;5037808;28;20401;-79
2021/11/09 03:55:03;;;;;;;13.23;6.53;;;13.10;90.60;;;;;;5037332;28;20530;-80
2021/11/09 03:57:33;;;;;;;12.52;6.63;;;13.10;90.50;;;;;;5037074;28;20032;-80
2021/11/09 04:02:46;;;;;;;12.13;6.43;;;13.10;90.50;;;;;;5055386;28;20025;-80
2021/11/09 04:05:13;;;;;;;11.75;6.75;;;13.00;90.60;;;;;;5053633;28;20033;-79
2021/11/09 04:08:07;;;;;;;13.63;6.97;;;13.00;90.40;;;;;;5037159;28;20021;-82
2021/11/09 04:10:54;;;;;;;13.02;7.38;;;13.00;90.60;;;;;;5054279;28;20040;-79
2021/11/09 04:13:26;;;;;;;14.00;6.93;;;13.00;90.60;;;;;;5037131;28;20021;-81
2021/11/09 04:21:12;;;;;;;16.35;7.18;;;12.90;90.60;;;;;;5054971;28;20104;-80
2021/11/09 04:53:07;;;;;;;12.82;6.35;;;12.90;90.60;;;;;;5054281;28;20035;-82
2021/11/09 05:11:33;;;;;;;13.27;6.40;;;12.90;90.70;;;;;;5053897;28;20029;-80
2021/11/09 05:13:59;;;;;;;11.95;6.50;;;12.90;90.70;;;;;;5035560;28;20539;-79
2021/11/09 05:16:24;;;;;;;12.43;6.60;;;12.90;90.70;;;;;;5035573;28;20063;-80
2021/11/09 05:18:50;;;;;;;13.48;6.47;;;12.90;90.80;;;;;;5051980;28;20077;-80
2021/11/09 05:21:15;;;;;;;14.50;6.70;;;12.90;90.70;;;;;;5035689;28;20025;-80
2021/11/09 05:23:42;;;;;;;11.50;6.40;;;12.90;90.70;;;;;;5035408;28;20017;-80
2021/11/09 05:26:07;;;;;;;11.35;6.30;;;12.90;90.70;;;;;;5052818;28;20017;-80
2021/11/09 05:28:33;;;;;;;12.63;6.50;;;12.90;90.60;;;;;;5035372;28;20025;-80
2021/11/09 05:30:59;;;;;;;11.98;5.85;;;12.90;90.70;;;;;;5035536;28;20125;-80
2021/11/09 05:33:24;;;;;;;11.60;6.35;;;13.00;90.80;;;;;;5053257;28;20645;-80
2021/11/09 05:35:51;;;;;;;10.48;6.30;;;12.90;90.80;;;;;;5035255;28;20025;-79
2021/11/09 05:38:24;;;;;;;13.90;6.10;;;12.90;90.70;;;;;;5052977;28;20380;-80
2021/11/09 05:40:55;;;;;;;12.60;6.25;;;13.00;90.70;;;;;;5052815;28;20045;-80
2021/11/09 05:43:21;;;;;;;11.30;6.32;;;12.90;90.70;;;;;;5053193;28;20067;-80
2021/11/09 05:45:47;;;;;;;12.57;6.75;;;12.90;90.70;;;;;;5052871;28;20029;-80
2021/11/09 05:48:12;;;;;;;12.00;6.38;;;12.90;90.70;;;;;;5035161;28;20028;-78
2021/11/09 05:50:38;;;;;;;12.13;6.13;;;12.90;90.70;;;;;;5035106;28;20029;-80
2021/11/09 05:53:03;;;;;;;13.23;6.57;;;12.90;90.80;;;;;;5035175;28;20060;-78
2021/11/09 05:55:29;;;;;;;13.05;6.72;;;12.90;90.70;;;;;;5035234;28;20432;-80
2021/11/09 05:57:55;;;;;;;14.25;6.70;;;12.90;90.70;;;;;;5035157;28;20028;-80
2021/11/09 06:00:20;;;;;;;11.77;6.38;;;12.90;90.80;;;;;;5035079;28;20032;-82
2021/11/09 06:02:46;;;;;;;12.38;6.53;;;12.90;90.80;;;;;;5035017;28;20553;-80
2021/11/09 06:05:12;;;;;;;13.32;6.35;;;12.90;90.90;;;;;;5034738;28;20059;-80
2021/11/09 06:07:38;;;;;;;11.85;6.32;;;12.90;90.80;;;;;;5052637;28;20021;-80
2021/11/09 06:10:04;;;;;;;11.57;6.38;;;12.90;90.80;;;;;;5052770;28;20433;-79
2021/11/09 06:12:30;;;;;;;14.95;6.95;;;12.90;90.90;;;;;;5033188;28;20029;-79
2021/11/09 06:14:55;;;;;;;12.50;6.80;;;12.90;90.80;;;;;;5032985;28;20018;-81
2021/11/09 06:17:21;;;;;;;13.13;6.88;;;12.90;90.70;;;;;;5031707;28;20045;-81
2021/11/09 06:19:46;;;;;;;10.73;6.22;;;12.90;90.70;;;;;;5031698;28;20120;-78
2021/11/09 06:22:12;;;;;;;13.30;6.60;;;12.90;90.70;;;;;;5029871;28;20057;-79
2021/11/09 06:24:38;;;;;;;13.68;6.22;;;12.90;90.90;;;;;;5032573;28;20040;-79
2021/11/09 06:27:03;;;;;;;12.40;6.05;;;13.00;90.90;;;;;;5033222;28;20017;-78
2021/11/09 06:29:29;;;;;;;11.10;5.88;;;13.00;91.00;;;;;;5034930;28;20123;-80
2021/11/09 06:31:57;;;;;;;13.38;5.95;;;13.00;90.90;;;;;;5052435;28;20042;-79
2021/11/09 06:34:22;;;;;;;12.65;6.30;;;13.00;90.80;;;;;;5035331;28;20054;-80
2021/11/09 06:36:48;;;;;;;14.18;6.32;;;13.00;90.70;;;;;;5054044;28;20037;-81
2021/11/09 06:39:14;;;;;;;11.50;5.95;;;13.00;90.70;;;;;;5053186;28;20032;-80
2021/11/09 06:41:40;;;;;;;12.65;6.50;;;13.10;90.70;;;;;;5041096;28;20034;-79
2021/11/09 06:44:05;;;;;;;12.32;6.15;;;13.00;90.60;;;;;;5035196;28;20022;-80
2021/11/09 06:46:31;;;;;;;12.05;5.90;;;13.10;90.50;;;;;;5034903;28;20035;-81
2021/11/09 06:48:56;;;;;;;13.32;6.13;;;13.10;90.60;;;;;;5053690;28;20029;-78
2021/11/09 06:51:22;;;;;;;13.45;6.20;;;13.10;90.60;;;;;;5036820;28;20074;-80
2021/11/09 06:53:47;;;;;;;12.63;5.50;;;13.10;90.60;;;;;;5054693;28;20071;-83
2021/11/09 06:56:13;;;;;;;12.73;6.07;;;13.10;90.60;;;;;;5055149;28;20025;-82
2021/11/09 06:58:39;;;;;;;12.23;6.10;;;13.10;90.70;;;;;;5035313;28;20332;-80
2021/11/09 07:01:05;;;;;;;11.48;5.88;;;13.10;90.60;;;;;;5036304;28;20029;-81
2021/11/09 07:03:33;;;;;;;13.23;6.68;;;13.10;90.60;;;;;;5026338;28;20124;-82
2021/11/09 07:06:00;;;;;;;13.00;6.40;;;13.10;90.60;;;;;;5032710;28;20032;-82
2021/11/09 07:08:26;;;;;;;11.63;6.05;;;13.10;90.40;;;;;;5028399;28;20133;-82
2021/11/09 07:10:52;;;;;;;13.52;5.97;;;13.10;90.30;;;;;;5033986;28;20061;-79
2021/11/09 07:13:17;;;;;;;12.63;6.30;;;13.10;90.20;;;;;;5023052;28;20048;-79
2021/11/09 07:15:44;;;;;;;12.95;6.03;;;13.10;90.20;;;;;;5037281;28;20029;-79
2021/11/09 07:18:10;;;;;;;12.25;5.75;;;13.10;90.20;;;;;;5020875;28;20026;-79
2021/11/09 07:20:37;;;;;;;12.90;5.82;;;13.00;90.20;;;;;;5016269;28;20079;-81
2021/11/09 07:23:04;;;;;;;12.23;5.93;;;13.00;90.20;;;;;;5019323;28;20018;-82
2021/11/09 07:25:31;;;;;;;11.15;6.10;;;12.90;90.20;;;;;;5015579;28;20028;-84
2021/11/09 07:27:57;;;;;;;16.55;6.38;;;13.10;90.30;;;;;;5015475;28;20079;-82
2021/11/09 07:30:26;;;;;;;14.13;6.30;;;13.10;90.20;;;;;;5015579;28;20022;-82
2021/11/09 07:32:52;;;;;;;14.00;6.47;;;13.10;90.30;;;;;;5032351;28;20377;-83
2021/11/09 07:35:17;;;;;;;21.08;6.75;;;13.10;90.30;;;;;;5018301;28;20020;-83
2021/11/09 07:37:43;;;;;;;12.65;6.15;;;13.10;90.30;;;;;;5019058;28;20032;-82
2021/11/09 07:40:12;;;;;;;13.80;5.78;;;13.10;90.10;;;;;;5019153;28;20033;-82
2021/11/09 07:42:45;;;;;;;11.88;5.55;;;13.20;90.10;;;;;;5018572;28;20088;-82
2021/11/09 07:45:11;;;;;;;14.15;6.65;;;13.20;89.80;;;;;;5036829;28;20028;-81
2021/11/09 07:47:36;;;;;;;12.43;6.38;;;13.20;89.90;;;;;;5038621;28;20055;-83
2021/11/09 07:50:03;;;;;;;13.57;5.80;;;13.30;90.00;;;;;;5038514;28;20035;-83
2021/11/09 07:52:28;;;;;;;15.40;6.43;;;13.30;90.00;;;;;;5038695;28;20894;-82
2021/11/09 07:54:59;;;;;;;13.32;6.50;;;13.30;89.90;;;;;;5034967;28;20029;-80
2021/11/09 07:57:28;;;;;;;13.50;6.30;;;13.40;89.40;;;;;;5036038;28;20033;-81
2021/11/09 07:59:57;;;;;;;14.00;6.18;;;13.40;89.30;;;;;;5034975;28;20079;-83
2021/11/09 08:02:33;;;;;;;13.90;6.18;;;13.50;89.20;;;;;;5018688;28;20026;-83
2021/11/09 08:05:05;;;;;;;13.77;6.18;;;13.50;88.90;;;;;;5042553;28;20013;-81
2021/11/09 08:07:33;;;;;;;;;;;13.50;88.70;;;;;;5038328;28;20510;-82
2021/11/09 08:10:00;;;;;;;13.80;5.90;;;13.60;89.00;;;;;;5034532;28;19912;-81
2021/11/09 08:12:25;;;;;;;14.27;6.15;;;13.60;88.60;;;;;;5033778;28;20026;-81
2021/11/09 08:14:51;;;;;;;11.32;5.90;;;13.60;88.40;;;;;;5034096;28;20481;-83
2021/11/09 08:17:18;;;;;;;13.65;5.75;;;13.70;88.60;;;;;;5033972;28;20060;-83
2021/11/09 08:19:43;;;;;;;12.05;6.22;;;13.70;88.30;;;;;;5047699;28;20040;-81
2021/11/09 08:22:09;;;;;;;12.65;5.50;;;13.70;88.30;;;;;;5036494;28;20093;-82
2021/11/09 08:24:35;;;;;;;13.45;5.97;;;13.80;88.40;;;;;;5053465;28;20035;-82
2021/11/09 08:27:06;;;;;;;12.63;5.95;;;13.80;88.20;;;;;;5033613;28;20029;-83
2021/11/09 08:29:33;;;;;;;12.50;5.90;;;13.80;88.30;;;;;;5033248;28;20029;-82
2021/11/09 08:32:00;;;;;;;13.70;5.70;;;13.80;88.20;;;;;;5032198;28;20650;-82
2021/11/09 08:34:29;;;;;;;12.10;5.85;;;13.90;88.60;;;;;;5033027;28;20022;-81
2021/11/09 08:36:56;;;;;;;10.52;5.75;;;13.90;88.10;;;;;;5049283;28;20099;-82
2021/11/09 08:39:25;;;;;;;13.48;6.55;;;13.90;88.00;;;;;;5018345;28;20083;-85
2021/11/09 08:44:22;;;;;;;13.93;5.90;;;14.00;87.90;;;;;;5036927;28;20462;-82
2021/11/09 08:46:51;;;;;;;10.40;5.60;;;14.00;87.80;;;;;;5048103;28;20028;-80
2021/11/09 08:49:22;;;;;;;12.07;5.55;;;14.00;87.60;;;;;;5053469;28;20025;-84
2021/11/09 08:51:50;;;;;;;10.27;5.70;;;14.00;87.50;;;;;;5046260;28;20098;-83
2021/11/09 08:54:22;;;;;;;11.65;5.80;;;14.10;87.50;;;;;;5054319;28;20021;-82
2021/11/09 09:04:45;;;;;;;11.05;5.50;;;14.20;87.00;;;;;;5049899;28;20044;-80
2021/11/09 09:07:11;;;;;;;10.82;5.45;;;14.10;86.70;;;;;;5032301;28;20673;-82
2021/11/09 09:09:36;;;;;;;10.10;5.10;;;14.20;86.90;;;;;;5033832;28;20115;-82
2021/11/09 09:12:03;;;;;;;16.33;5.60;;;14.20;86.80;;;;;;5015443;28;20495;-83
2021/11/09 09:14:28;;;;;;;13.88;5.68;;;14.20;86.70;;;;;;5013333;28;20414;-81
2021/11/09 09:16:54;;;;;;;15.93;6.05;;;14.20;86.70;;;;;;5031105;28;20041;-81
2021/11/09 09:19:26;;;;;;;11.95;5.65;;;14.20;87.00;;;;;;5012617;28;20040;-83
2021/11/09 09:22:12;;;;;;;13.95;5.45;;;14.20;86.50;;;;;;5013629;28;20042;-82
2021/11/09 09:24:48;;;;;;;10.43;5.07;;;14.30;86.60;;;;;;5012456;28;20419;-84
2021/11/09 09:27:27;;;;;;;11.90;5.35;;;14.30;86.60;;;;;;5013110;28;20549;-81
2021/11/09 09:30:15;;;;;;;10.40;5.35;;;14.30;86.20;;;;;;5013324;28;20033;-84
2021/11/09 09:56:54;;;;;;;11.20;5.22;;;14.40;85.60;;;;;;5029546;28;20029;-81
2021/11/09 09:59:29;;;;;;;10.70;4.53;;;14.40;85.30;;;;;;5011862;28;20131;-80
2021/11/09 10:02:08;;;;;;;13.23;5.28;;;14.40;85.40;;;;;;5012267;28;20060;-82
2021/11/09 10:04:41;;;;;;;8.77;4.60;;;14.50;85.20;;;;;;5030784;28;20633;-84
2021/11/09 10:07:08;;;;;;;11.98;5.40;;;14.50;85.10;;;;;;5051403;28;20033;-84
2021/11/09 10:09:42;;;;;;;12.45;5.30;;;14.50;84.70;;;;;;5031180;28;20048;-86
2021/11/09 10:12:20;;;;;;;9.82;5.00;;;14.40;84.50;;;;;;5015001;28;20099;-81
2021/11/09 10:14:51;;;;;;;11.70;5.00;;;14.40;84.40;;;;;;5016273;28;20044;-81
2021/11/09 10:17:21;;;;;;;13.75;4.70;;;14.40;84.50;;;;;;5050882;28;20115;-81
2021/11/09 10:19:47;;;;;;;12.55;5.03;;;14.40;84.40;;;;;;5024801;28;20034;-83
2021/11/09 10:22:34;;;;;;;11.15;4.57;;;14.40;84.40;;;;;;5032103;28;20026;-82
2021/11/09 10:28:21;;;;;;;11.35;4.90;;;14.40;84.30;;;;;;5050946;28;20476;-81
2021/11/09 10:30:54;;;;;;;9.38;4.57;;;14.40;84.10;;;;;;5034596;28;20028;-82
2021/11/09 10:34:27;;;;;;;11.43;4.60;;;14.30;84.20;;;;;;5035467;28;20029;-82
2021/11/09 10:36:40;;;;;;;10.98;4.88;;;14.40;83.90;;;;;;5045602;28;20101;-82
2021/11/09 10:39:22;;;;;;;10.95;4.85;;;14.40;83.60;;;;;;5035102;28;20120;-81
2021/11/09 10:42:14;;;;;;;12.70;5.07;;;14.40;83.60;;;;;;5035750;28;20021;-83
2021/11/09 10:44:42;;;;;;;8.80;4.75;;;14.40;83.50;;;;;;5034663;28;20112;-83
2021/11/09 10:47:35;;;;;;;9.75;4.78;;;14.40;83.60;;;;;;5035145;28;20021;-80
2021/11/09 10:50:27;;;;;;;9.60;4.60;;;14.40;83.70;;;;;;5031590;28;20041;-83
2021/11/09 10:53:15;;;;;;;10.15;4.97;;;14.00;83.50;;;;;;5034946;28;20052;-81
2021/11/09 10:56:21;;;;;;;10.25;4.90;;;14.40;83.80;;;;;;5035152;28;20051;-81
2021/11/09 10:59:45;;;;;;;;;;;;;;;;;;;;;
2021/11/09 11:05:23;;;;;;;12.10;5.35;;;14.50;83.70;;;;;;5051212;28;20040;-82
2021/11/09 11:08:00;;;;;;;11.98;4.70;;;14.60;83.70;;;;;;5025901;28;20025;-81
2021/11/09 11:10:32;;;;;;;10.32;4.80;;;14.50;83.50;;;;;;5038483;28;20862;-82
2021/11/09 11:13:26;;;;;;;9.98;5.10;;;14.50;83.40;;;;;;5037755;28;20029;-83
2021/11/09 11:16:43;;;;;;;8.75;4.35;;;14.50;83.40;;;;;;5035374;28;20032;-82
2021/11/09 11:19:32;;;;;;;;;;;;;;;;;;;;;
2021/11/09 11:22:18;;;;;;;9.85;4.53;;;14.60;83.50;;;;;;5052930;28;20436;-82
2021/11/09 11:28:35;;;;;;;9.07;4.40;;;14.50;83.20;;;;;;5052869;28;20045;-81
2021/11/09 11:31:04;;;;;;;8.77;3.83;;;14.70;83.30;;;;;;5034347;28;20028;-83
2021/11/09 11:34:09;;;;;;;9.02;4.40;;;14.60;83.10;;;;;;5034422;28;20080;-81
2021/11/09 11:37:24;;;;;;;9.88;4.45;;;14.60;83.00;;;;;;5033700;28;20037;-80
2021/11/09 11:40:20;;;;;;;9.80;4.38;;;14.60;83.10;;;;;;5034067;28;20045;-82
2021/11/09 11:43:37;;;;;;;9.73;4.10;;;14.60;83.10;;;;;;5033984;28;20048;-82
2021/11/09 11:46:02;;;;;;;8.82;4.00;;;14.60;83.00;;;;;;5001071;28;20032;-80
2021/11/09 11:49:18;;;;;;;9.43;4.03;;;14.60;83.00;;;;;;5037212;28;20482;-81
2021/11/09 11:51:50;;;;;;;8.20;4.25;;;14.60;82.90;;;;;;5034921;28;20060;-82
2021/11/09 11:54:42;;;;;;;;;;;14.60;82.80;;;;;;5037475;28;20033;-82
2021/11/09 11:57:09;;;;;;;7.60;3.60;;;14.60;82.80;;;;;;5094744;22;19919;-77
2021/11/09 11:59:37;;;;;;;10.40;4.05;;;14.60;82.80;;;;;;5077978;28;20024;-79
2021/11/09 12:02:05;;;;;;;8.45;3.28;;;14.60;83.00;;;;;;5094731;28;20020;-79
2021/11/09 12:04:48;;;;;;;8.40;3.72;;;14.60;82.80;;;;;;5076568;28;20379;-79
2021/11/09 12:07:17;;;;;;;9.23;4.10;;;14.60;83.50;;;;;;5076472;28;20114;-78
2021/11/09 12:09:49;;;;;;;7.38;3.95;;;14.60;83.00;;;;;;5076244;28;20512;-77
2021/11/09 12:12:17;;;;;;;8.48;3.72;;;14.60;83.10;;;;;;5076644;28;20078;-77
2021/11/09 12:14:57;;;;;;;10.07;3.70;;;14.60;83.00;;;;;;5093891;28;20115;-77
2021/11/09 12:17:32;;;;;;;8.13;3.80;;;14.60;82.90;;;;;;5076984;28;20439;-78
2021/11/09 12:20:00;;;;;;;7.55;3.05;;;14.60;82.90;;;;;;5076283;28;20020;-77
2021/11/09 12:22:58;;;;;;;9.85;3.63;;;14.60;82.80;;;;;;5077200;28;20035;-79
2021/11/09 12:25:36;;;;;;;8.07;3.08;;;14.60;82.80;;;;;;5050172;28;20083;-78
2021/11/09 12:28:10;;;;;;;8.68;3.55;;;14.60;82.90;;;;;;5093207;28;20570;-77
2021/11/09 12:30:54;;;;;;;6.57;3.25;;;14.60;83.00;;;;;;5075703;28;20030;-79
2021/11/09 12:33:26;;;;;;;8.30;3.20;;;14.70;82.90;;;;;;5076475;28;20051;-77
2021/11/09 12:35:57;;;;;;;;;;;14.70;83.20;;;;;;5076230;28;20031;-78
2021/11/09 12:38:31;;;;;;;8.82;3.35;;;14.70;82.70;;;;;;5076056;28;20323;-77
2021/11/09 12:40:58;;;;;;;7.82;3.00;;;14.80;82.60;;;;;;5092832;28;20119;-77
2021/11/09 12:43:30;;;;;;;7.82;3.00;;;14.80;82.40;;;;;;5094278;28;20027;-79
2021/11/09 12:46:06;;;;;;;6.93;2.97;;;14.80;82.30;;;;;;5093511;28;20016;-77
2021/11/09 12:48:34;;;;;;;6.78;2.97;;;14.70;82.30;;;;;;5093556;28;20035;-79
2021/11/09 12:51:11;;;;;;;6.70;2.80;;;14.70;82.30;;;;;;5094763;28;20486;-77
2021/11/09 12:53:48;;;;;;;5.65;2.70;;;14.70;82.30;;;;;;5076616;28;20054;-77
2021/11/09 12:56:22;;;;;;;6.32;2.88;;;14.70;82.40;;;;;;5093716;28;20476;-78
2021/11/09 12:58:58;;;;;;;7.25;2.83;;;14.70;82.60;;;;;;5076402;28;20028;-77
2021/11/09 13:01:35;;;;;;;10.98;2.88;;;14.60;82.70;;;;;;5094342;28;20150;-75
2021/11/09 13:04:16;;;;;;;9.45;3.00;;;14.60;82.80;;;;;;5076296;28;20058;-77
2021/11/09 13:09:45;;;;;;;8.88;3.17;;;14.60;82.70;;;;;;5088454;28;20055;-77
2021/11/09 13:12:25;;;;;;;8.80;3.00;;;14.50;82.80;;;;;;5075453;28;20107;-77
2021/11/09 13:14:55;;;;;;;7.00;2.63;;;14.50;83.00;;;;;;5091876;28;20039;-77
2021/11/09 13:17:37;;;;;;;7.40;3.28;;;14.40;83.10;;;;;;5054944;28;20037;-77
2021/11/09 13:23:03;;;;;;;6.10;2.50;;;14.40;83.30;;;;;;5073347;28;20050;-77
2021/11/09 13:25:38;;;;;;;7.70;2.50;;;14.40;83.50;;;;;;5054535;28;20398;-78
2021/11/09 13:28:05;;;;;;;6.28;2.83;;;14.40;83.60;;;;;;5053201;28;20017;-77
2021/11/09 13:30:33;;;;;;;6.32;2.70;;;14.40;83.80;;;;;;5070942;28;20032;-77
2021/11/09 13:32:59;;;;;;;5.97;2.75;;;14.40;83.90;;;;;;5054492;28;20024;-77
2021/11/09 13:35:35;;;;;;;6.43;2.72;;;14.40;83.90;;;;;;5054325;28;20032;-78
2021/11/09 13:38:17;;;;;;;7.32;2.45;;;14.30;84.00;;;;;;5072039;28;20017;-77
2021/11/09 13:40:51;;;;;;;7.00;2.40;;;14.30;84.10;;;;;;5072460;28;20092;-77
2021/11/09 13:43:20;;;;;;;7.45;2.63;;;14.30;84.20;;;;;;5072534;28;20017;-77
2021/11/09 13:45:46;;;;;;;7.63;2.70;;;14.30;84.30;;;;;;5054271;28;20017;-77
2021/11/09 13:48:17;;;;;;;6.13;2.58;;;14.20;84.30;;;;;;5054546;28;20154;-77
2021/11/09 13:50:45;;;;;;;6.03;2.65;;;14.30;84.50;;;;;;5054413;28;20024;-77
2021/11/09 13:53:12;;;;;;;5.75;2.55;;;14.30;84.60;;;;;;5054663;28;20129;-77
2021/11/09 13:55:40;;;;;;;6.25;2.60;;;14.20;84.60;;;;;;5054276;28;20478;-77
2021/11/09 13:58:08;;;;;;;7.53;2.55;;;14.20;84.70;;;;;;5054027;28;20513;-76
2021/11/09 14:00:41;;;;;;;7.18;2.40;;;14.20;84.80;;;;;;5072579;28;20048;-76
2021/11/09 14:16:54;;;;;;;9.05;2.88;;;14.10;84.90;;;;;;5072608;28;20039;-77
2021/11/09 14:19:35;;;;;;;6.10;2.55;;;14.10;85.00;;;;;;5054196;28;20297;-77
2021/11/09 14:22:20;;;;;;;6.05;2.28;;;14.10;85.20;;;;;;5054106;28;20028;-77
2021/11/09 14:25:00;;;;;;;5.60;2.33;;;14.10;85.30;;;;;;5053976;28;20405;-77
2021/11/09 14:27:31;;;;;;;6.88;2.72;;;14.10;85.40;;;;;;5071631;28;20039;-77
2021/11/09 14:29:59;;;;;;;5.57;2.60;;;14.00;85.40;;;;;;5054058;28;20044;-77
2021/11/09 14:32:27;;;;;;;5.10;2.20;;;14.00;85.50;;;;;;5054245;28;20082;-77
2021/11/09 14:35:15;;;;;;;6.80;2.17;;;14.00;85.50;;;;;;5071882;28;20047;-77
2021/11/09 14:37:47;;;;;;;6.03;2.58;;;14.00;85.60;;;;;;5053717;28;20486;-77
2021/11/09 14:40:13;;;;;;;5.00;2.35;;;14.00;85.70;;;;;;5071684;28;20102;-77
2021/11/09 14:48:26;;;;;;;5.43;2.38;;;14.00;85.80;;;;;;5075750;28;20028;-77
2021/11/09 14:56:24;;;;;;;4.45;2.00;;;13.90;86.00;;;;;;5075283;28;20469;-79
2021/11/09 14:58:49;;;;;;;6.55;2.10;;;13.90;86.20;;;;;;5059235;28;20029;-78
2021/11/09 15:01:25;;;;;;;6.50;2.47;;;13.90;86.20;;;;;;5066355;28;20024;-78
2021/11/09 15:04:00;;;;;;;7.43;2.30;;;13.90;85.60;;;;;;5079939;28;20024;-78
2021/11/09 15:06:53;;;;;;;7.90;2.20;;;13.90;84.70;;;;;;5097105;28;20024;-79
2021/11/09 15:09:31;;;;;;;7.25;2.30;;;13.80;83.60;;;;;;5096989;28;20140;-78
2021/11/09 15:27:59;;;;;;;9.35;2.80;;;13.80;83.00;;;;;;5103760;28;20020;-78
2021/11/09 15:30:33;;;;;;;8.75;2.72;;;13.80;82.80;;;;;;5085375;28;20020;-79
2021/11/09 15:32:59;;;;;;;6.70;2.83;;;13.80;82.00;;;;;;5084862;28;20048;-79
2021/11/09 15:35:37;;;;;;;8.35;2.95;;;13.80;81.50;;;;;;5100765;28;20065;-81
2021/11/09 15:38:03;;;;;;;7.13;2.65;;;13.70;81.30;;;;;;5098561;28;20020;-79
2021/11/09 15:40:28;;;;;;;9.15;2.70;;;13.80;82.90;;;;;;5079612;28;20020;-80
2021/11/09 15:42:54;;;;;;;8.15;2.60;;;13.80;81.70;;;;;;5095929;28;20046;-78
2021/11/09 15:45:19;;;;;;;7.68;2.63;;;13.80;81.30;;;;;;5096348;28;20027;-77
2021/11/09 15:47:46;;;;;;;7.10;2.45;;;13.80;81.50;;;;;;5081622;28;20028;-78
2021/11/09 15:50:12;;;;;;;7.55;2.30;;;13.80;81.80;;;;;;5096065;28;20046;-78
2021/11/09 15:52:39;;;;;;;9.18;2.40;;;13.80;82.00;;;;;;5063542;28;20123;-78
2021/11/09 15:55:06;;;;;;;8.65;2.85;;;13.80;82.30;;;;;;5087298;28;20056;-77
2021/11/09 15:57:32;;;;;;;6.93;2.33;;;13.80;82.50;;;;;;5076905;28;20043;-77
2021/11/09 16:00:00;;;;;;;7.57;2.67;;;13.80;82.90;;;;;;5077120;28;20020;-77